sensor_id;sensor_type;location;lat;lon;timestamp;temperature;humidity
45491;DHT22;31237;45.586;13.782;2023-02-11T00:00:11;2.90;45.30
45491;DHT22;31237;45.586;13.782;2023-02-11T00:02:37;2.80;45.30
45491;DHT22;31237;45.586;13.782;2023-02-11T00:05:02;2.80;45.40
45491;DHT22;31237;45.586;13.782;2023-02-11T00:07:29;2.80;45.40
45491;DHT22;31237;45.586;13.782;2023-02-11T00:09:55;2.80;45.40
45491;DHT22;31237;45.586;13.782;2023-02-11T00:12:21;2.70;45.40
45491;DHT22;31237;45.586;13.782;2023-02-11T00:14:47;2.70;45.40
45491;DHT22;31237;45.586;13.782;2023-02-11T00:17:13;2.70;45.50
45491;DHT22;31237;45.586;13.782;2023-02-11T00:19:39;2.60;45.60
45491;DHT22;31237;45.586;13.782;2023-02-11T00:22:04;2.60;45.60
45491;DHT22;31237;45.586;13.782;2023-02-11T00:24:31;2.50;45.70
45491;DHT22;31237;45.586;13.782;2023-02-11T00:26:56;2.50;45.80
45491;DHT22;31237;45.586;13.782;2023-02-11T00:29:22;2.40;45.80
45491;DHT22;31237;45.586;13.782;2023-02-11T00:31:48;2.40;45.80
45491;DHT22;31237;45.586;13.782;2023-02-11T00:34:14;2.40;45.80
45491;DHT22;31237;45.586;13.782;2023-02-11T00:36:39;2.30;45.90
45491;DHT22;31237;45.586;13.782;2023-02-11T00:39:06;2.30;46.00
45491;DHT22;31237;45.586;13.782;2023-02-11T00:41:32;2.20;46.10
45491;DHT22;31237;45.586;13.782;2023-02-11T00:43:59;2.20;46.10
45491;DHT22;31237;45.586;13.782;2023-02-11T00:46:25;2.10;46.20
45491;DHT22;31237;45.586;13.782;2023-02-11T00:48:51;2.10;46.30
45491;DHT22;31237;45.586;13.782;2023-02-11T00:51:19;2.00;46.30
45491;DHT22;31237;45.586;13.782;2023-02-11T00:53:45;2.00;46.40
45491;DHT22;31237;45.586;13.782;2023-02-11T00:56:11;1.90;46.40
45491;DHT22;31237;45.586;13.782;2023-02-11T00:58:37;1.90;46.50
45491;DHT22;31237;45.586;13.782;2023-02-11T01:01:03;1.90;46.50
45491;DHT22;31237;45.586;13.782;2023-02-11T01:03:29;1.80;46.50
45491;DHT22;31237;45.586;13.782;2023-02-11T01:05:54;1.80;46.50
45491;DHT22;31237;45.586;13.782;2023-02-11T01:08:20;1.80;46.50
45491;DHT22;31237;45.586;13.782;2023-02-11T01:10:55;1.70;46.50
45491;DHT22;31237;45.586;13.782;2023-02-11T01:13:21;1.70;46.50
45491;DHT22;31237;45.586;13.782;2023-02-11T01:15:46;1.70;46.50
45491;DHT22;31237;45.586;13.782;2023-02-11T01:18:12;1.60;46.50
45491;DHT22;31237;45.586;13.782;2023-02-11T01:20:38;1.60;46.50
45491;DHT22;31237;45.586;13.782;2023-02-11T01:23:03;1.60;46.60
45491;DHT22;31237;45.586;13.782;2023-02-11T01:25:29;1.50;46.70
45491;DHT22;31237;45.586;13.782;2023-02-11T01:27:55;1.50;46.70
45491;DHT22;31237;45.586;13.782;2023-02-11T01:30:21;1.50;46.80
45491;DHT22;31237;45.586;13.782;2023-02-11T01:32:46;1.40;46.80
45491;DHT22;31237;45.586;13.782;2023-02-11T01:35:12;1.40;46.80
45491;DHT22;31237;45.586;13.782;2023-02-11T01:37:38;1.40;46.90
45491;DHT22;31237;45.586;13.782;2023-02-11T01:40:07;1.30;46.90
45491;DHT22;31237;45.586;13.782;2023-02-11T01:42:35;1.40;47.00
45491;DHT22;31237;45.586;13.782;2023-02-11T01:48:05;1.50;47.10
45491;DHT22;31237;45.586;13.782;2023-02-11T01:50:32;1.60;47.20
45491;DHT22;31237;45.586;13.782;2023-02-11T01:52:58;1.60;47.20
45491;DHT22;31237;45.586;13.782;2023-02-11T01:55:44;1.60;47.30
45491;DHT22;31237;45.586;13.782;2023-02-11T01:58:30;1.60;47.30
45491;DHT22;31237;45.586;13.782;2023-02-11T02:00:57;1.60;47.20
45491;DHT22;31237;45.586;13.782;2023-02-11T02:03:25;1.60;47.20
45491;DHT22;31237;45.586;13.782;2023-02-11T02:08:43;1.60;47.20
45491;DHT22;31237;45.586;13.782;2023-02-11T02:11:11;1.60;47.30
45491;DHT22;31237;45.586;13.782;2023-02-11T02:13:37;1.60;47.30
45491;DHT22;31237;45.586;13.782;2023-02-11T02:16:06;1.50;47.20
45491;DHT22;31237;45.586;13.782;2023-02-11T02:40:30;1.30;47.50
45491;DHT22;31237;45.586;13.782;2023-02-11T02:42:57;1.30;47.50
45491;DHT22;31237;45.586;13.782;2023-02-11T02:45:24;1.30;47.70
45491;DHT22;31237;45.586;13.782;2023-02-11T02:47:50;1.30;48.30
45491;DHT22;31237;45.586;13.782;2023-02-11T02:50:18;1.30;47.60
45491;DHT22;31237;45.586;13.782;2023-02-11T02:53:06;1.40;47.70
45491;DHT22;31237;45.586;13.782;2023-02-11T02:55:55;1.40;47.60
45491;DHT22;31237;45.586;13.782;2023-02-11T03:01:36;1.40;47.50
45491;DHT22;31237;45.586;13.782;2023-02-11T03:04:10;1.40;47.40
45491;DHT22;31237;45.586;13.782;2023-02-11T03:09:37;1.50;47.40
45491;DHT22;31237;45.586;13.782;2023-02-11T03:12:05;1.60;47.30
45491;DHT22;31237;45.586;13.782;2023-02-11T03:14:32;1.60;47.30
45491;DHT22;31237;45.586;13.782;2023-02-11T03:17:00;1.60;47.20
45491;DHT22;31237;45.586;13.782;2023-02-11T03:19:36;1.70;47.30
45491;DHT22;31237;45.586;13.782;2023-02-11T03:22:06;1.70;47.20
45491;DHT22;31237;45.586;13.782;2023-02-11T03:24:36;1.70;47.20
45491;DHT22;31237;45.586;13.782;2023-02-11T03:27:26;1.60;47.10
45491;DHT22;31237;45.586;13.782;2023-02-11T03:30:06;1.60;47.20
45491;DHT22;31237;45.586;13.782;2023-02-11T03:32:48;1.60;47.20
45491;DHT22;31237;45.586;13.782;2023-02-11T03:35:22;1.60;47.30
45491;DHT22;31237;45.586;13.782;2023-02-11T03:38:00;1.50;47.40
45491;DHT22;31237;45.586;13.782;2023-02-11T03:40:38;1.50;47.40
45491;DHT22;31237;45.586;13.782;2023-02-11T03:43:17;1.40;47.40
45491;DHT22;31237;45.586;13.782;2023-02-11T03:45:47;1.40;47.50
45491;DHT22;31237;45.586;13.782;2023-02-11T03:48:32;1.40;47.50
45491;DHT22;31237;45.586;13.782;2023-02-11T03:51:01;1.30;47.50
45491;DHT22;31237;45.586;13.782;2023-02-11T03:53:29;1.30;47.60
45491;DHT22;31237;45.586;13.782;2023-02-11T03:55:56;1.30;47.60
45491;DHT22;31237;45.586;13.782;2023-02-11T03:58:23;1.30;47.80
45491;DHT22;31237;45.586;13.782;2023-02-11T04:00:49;1.20;47.80
45491;DHT22;31237;45.586;13.782;2023-02-11T04:03:14;1.20;47.80
45491;DHT22;31237;45.586;13.782;2023-02-11T04:05:40;1.20;47.80
45491;DHT22;31237;45.586;13.782;2023-02-11T04:08:06;1.20;47.80
45491;DHT22;31237;45.586;13.782;2023-02-11T04:10:32;1.20;48.00
45491;DHT22;31237;45.586;13.782;2023-02-11T04:12:58;1.10;47.90
45491;DHT22;31237;45.586;13.782;2023-02-11T04:15:24;1.20;48.00
45491;DHT22;31237;45.586;13.782;2023-02-11T04:17:50;1.20;48.10
45491;DHT22;31237;45.586;13.782;2023-02-11T04:20:16;1.20;48.00
45491;DHT22;31237;45.586;13.782;2023-02-11T04:22:41;1.30;48.00
45491;DHT22;31237;45.586;13.782;2023-02-11T04:25:08;1.30;47.90
45491;DHT22;31237;45.586;13.782;2023-02-11T04:27:34;1.40;47.80
45491;DHT22;31237;45.586;13.782;2023-02-11T04:30:00;1.50;47.80
45491;DHT22;31237;45.586;13.782;2023-02-11T04:32:25;1.50;47.80
45491;DHT22;31237;45.586;13.782;2023-02-11T04:34:51;1.60;47.60
45491;DHT22;31237;45.586;13.782;2023-02-11T04:37:17;1.50;47.60
45491;DHT22;31237;45.586;13.782;2023-02-11T04:39:43;1.60;47.60
45491;DHT22;31237;45.586;13.782;2023-02-11T04:42:08;1.60;47.60
45491;DHT22;31237;45.586;13.782;2023-02-11T04:44:34;1.60;47.60
45491;DHT22;31237;45.586;13.782;2023-02-11T04:47:00;1.60;47.60
45491;DHT22;31237;45.586;13.782;2023-02-11T04:49:25;1.60;47.50
45491;DHT22;31237;45.586;13.782;2023-02-11T04:51:51;1.60;47.50
45491;DHT22;31237;45.586;13.782;2023-02-11T04:54:17;1.50;47.40
45491;DHT22;31237;45.586;13.782;2023-02-11T04:56:43;1.50;47.40
45491;DHT22;31237;45.586;13.782;2023-02-11T04:59:10;1.50;47.30
45491;DHT22;31237;45.586;13.782;2023-02-11T05:01:38;1.50;47.30
45491;DHT22;31237;45.586;13.782;2023-02-11T05:04:04;1.50;47.30
45491;DHT22;31237;45.586;13.782;2023-02-11T05:06:29;1.50;47.30
45491;DHT22;31237;45.586;13.782;2023-02-11T05:08:55;1.40;47.40
45491;DHT22;31237;45.586;13.782;2023-02-11T05:11:23;1.40;47.50
45491;DHT22;31237;45.586;13.782;2023-02-11T05:13:50;1.30;47.50
45491;DHT22;31237;45.586;13.782;2023-02-11T05:16:16;1.30;47.40
45491;DHT22;31237;45.586;13.782;2023-02-11T05:18:44;1.30;47.60
45491;DHT22;31237;45.586;13.782;2023-02-11T05:21:12;1.30;47.50
45491;DHT22;31237;45.586;13.782;2023-02-11T05:23:39;1.30;47.60
45491;DHT22;31237;45.586;13.782;2023-02-11T05:26:06;1.20;47.60
45491;DHT22;31237;45.586;13.782;2023-02-11T05:28:31;1.20;47.60
45491;DHT22;31237;45.586;13.782;2023-02-11T05:30:58;1.20;47.70
45491;DHT22;31237;45.586;13.782;2023-02-11T05:33:23;1.10;47.60
45491;DHT22;31237;45.586;13.782;2023-02-11T05:35:49;1.20;47.70
45491;DHT22;31237;45.586;13.782;2023-02-11T05:38:16;1.10;47.60
45491;DHT22;31237;45.586;13.782;2023-02-11T05:40:41;1.10;47.60
45491;DHT22;31237;45.586;13.782;2023-02-11T05:43:07;1.10;47.70
45491;DHT22;31237;45.586;13.782;2023-02-11T05:45:33;1.00;47.60
45491;DHT22;31237;45.586;13.782;2023-02-11T05:47:59;1.00;47.70
45491;DHT22;31237;45.586;13.782;2023-02-11T05:50:25;1.00;47.80
45491;DHT22;31237;45.586;13.782;2023-02-11T05:52:51;0.90;47.80
45491;DHT22;31237;45.586;13.782;2023-02-11T05:55:17;0.90;47.80
45491;DHT22;31237;45.586;13.782;2023-02-11T05:57:42;0.90;47.90
45491;DHT22;31237;45.586;13.782;2023-02-11T06:00:13;0.90;47.90
45491;DHT22;31237;45.586;13.782;2023-02-11T06:02:39;0.90;47.90
45491;DHT22;31237;45.586;13.782;2023-02-11T06:05:05;0.80;47.90
45491;DHT22;31237;45.586;13.782;2023-02-11T06:07:31;0.90;47.90
45491;DHT22;31237;45.586;13.782;2023-02-11T06:09:57;0.80;47.80
45491;DHT22;31237;45.586;13.782;2023-02-11T06:12:24;0.80;47.80
45491;DHT22;31237;45.586;13.782;2023-02-11T06:14:49;0.80;47.70
45491;DHT22;31237;45.586;13.782;2023-02-11T06:17:15;0.80;47.70
45491;DHT22;31237;45.586;13.782;2023-02-11T06:19:41;0.80;47.70
45491;DHT22;31237;45.586;13.782;2023-02-11T06:22:06;0.80;47.60
45491;DHT22;31237;45.586;13.782;2023-02-11T06:24:32;0.80;47.60
45491;DHT22;31237;45.586;13.782;2023-02-11T06:26:58;0.80;47.50
45491;DHT22;31237;45.586;13.782;2023-02-11T06:29:23;0.80;47.60
45491;DHT22;31237;45.586;13.782;2023-02-11T06:31:49;0.80;47.60
45491;DHT22;31237;45.586;13.782;2023-02-11T06:34:15;0.80;47.70
45491;DHT22;31237;45.586;13.782;2023-02-11T06:36:41;0.80;47.60
45491;DHT22;31237;45.586;13.782;2023-02-11T06:39:09;0.80;47.70
45491;DHT22;31237;45.586;13.782;2023-02-11T06:41:34;0.80;47.70
45491;DHT22;31237;45.586;13.782;2023-02-11T06:44:00;0.90;47.70
45491;DHT22;31237;45.586;13.782;2023-02-11T06:46:26;0.90;47.60
45491;DHT22;31237;45.586;13.782;2023-02-11T06:48:51;0.90;47.50
45491;DHT22;31237;45.586;13.782;2023-02-11T06:51:17;0.90;47.50
45491;DHT22;31237;45.586;13.782;2023-02-11T06:53:44;0.90;47.40
45491;DHT22;31237;45.586;13.782;2023-02-11T06:56:16;1.00;47.50
45491;DHT22;31237;45.586;13.782;2023-02-11T06:58:42;1.00;47.50
45491;DHT22;31237;45.586;13.782;2023-02-11T07:01:14;1.00;47.50
45491;DHT22;31237;45.586;13.782;2023-02-11T07:03:42;1.00;47.40
45491;DHT22;31237;45.586;13.782;2023-02-11T07:06:11;1.10;47.40
45491;DHT22;31237;45.586;13.782;2023-02-11T07:08:38;1.10;47.30
45491;DHT22;31237;45.586;13.782;2023-02-11T07:11:33;1.20;47.30
45491;DHT22;31237;45.586;13.782;2023-02-11T07:14:02;1.20;47.10
45491;DHT22;31237;45.586;13.782;2023-02-11T07:16:28;1.30;47.10
45491;DHT22;31237;45.586;13.782;2023-02-11T07:18:54;1.40;47.10
45491;DHT22;31237;45.586;13.782;2023-02-11T07:21:20;1.50;47.00
45491;DHT22;31237;45.586;13.782;2023-02-11T07:23:47;1.60;47.00
45491;DHT22;31237;45.586;13.782;2023-02-11T07:26:18;1.70;46.90
45491;DHT22;31237;45.586;13.782;2023-02-11T07:28:44;1.90;46.80
45491;DHT22;31237;45.586;13.782;2023-02-11T07:31:16;2.00;46.70
45491;DHT22;31237;45.586;13.782;2023-02-11T07:33:42;2.10;46.60
45491;DHT22;31237;45.586;13.782;2023-02-11T07:36:11;2.20;46.50
45491;DHT22;31237;45.586;13.782;2023-02-11T07:38:37;2.30;46.40
45491;DHT22;31237;45.586;13.782;2023-02-11T07:41:06;2.40;46.30
45491;DHT22;31237;45.586;13.782;2023-02-11T07:43:33;2.50;46.20
45491;DHT22;31237;45.586;13.782;2023-02-11T07:46:06;2.60;46.00
45491;DHT22;31237;45.586;13.782;2023-02-11T07:48:33;2.70;45.80
45491;DHT22;31237;45.586;13.782;2023-02-11T07:51:10;2.80;45.70
45491;DHT22;31237;45.586;13.782;2023-02-11T07:53:37;2.90;45.50
45491;DHT22;31237;45.586;13.782;2023-02-11T07:56:04;3.00;45.50
45491;DHT22;31237;45.586;13.782;2023-02-11T07:58:30;3.10;45.30
45491;DHT22;31237;45.586;13.782;2023-02-11T08:01:01;3.20;45.00
45491;DHT22;31237;45.586;13.782;2023-02-11T08:03:27;3.30;45.10
45491;DHT22;31237;45.586;13.782;2023-02-11T08:05:53;3.40;45.00
45491;DHT22;31237;45.586;13.782;2023-02-11T08:08:19;3.40;44.90
45491;DHT22;31237;45.586;13.782;2023-02-11T08:10:44;3.50;44.90
45491;DHT22;31237;45.586;13.782;2023-02-11T08:13:10;3.60;44.70
45491;DHT22;31237;45.586;13.782;2023-02-11T08:15:36;3.70;44.60
45491;DHT22;31237;45.586;13.782;2023-02-11T08:18:01;3.70;44.40
45491;DHT22;31237;45.586;13.782;2023-02-11T08:20:27;3.80;44.70
45491;DHT22;31237;45.586;13.782;2023-02-11T08:22:53;3.80;44.50
45491;DHT22;31237;45.586;13.782;2023-02-11T08:25:19;3.90;44.10
45491;DHT22;31237;45.586;13.782;2023-02-11T08:27:44;4.10;43.40
45491;DHT22;31237;45.586;13.782;2023-02-11T08:30:11;4.20;43.80
45491;DHT22;31237;45.586;13.782;2023-02-11T08:32:36;4.20;43.70
45491;DHT22;31237;45.586;13.782;2023-02-11T08:35:04;4.30;43.80
45491;DHT22;31237;45.586;13.782;2023-02-11T08:37:32;4.40;43.50
45491;DHT22;31237;45.586;13.782;2023-02-11T08:39:58;4.40;43.30
45491;DHT22;31237;45.586;13.782;2023-02-11T08:42:24;4.50;43.20
45491;DHT22;31237;45.586;13.782;2023-02-11T08:44:49;4.60;43.10
45491;DHT22;31237;45.586;13.782;2023-02-11T08:47:15;4.60;43.00
45491;DHT22;31237;45.586;13.782;2023-02-11T08:49:41;4.70;42.90
45491;DHT22;31237;45.586;13.782;2023-02-11T08:52:07;4.70;43.10
45491;DHT22;31237;45.586;13.782;2023-02-11T08:54:33;4.80;43.00
45491;DHT22;31237;45.586;13.782;2023-02-11T08:56:59;4.90;42.20
45491;DHT22;31237;45.586;13.782;2023-02-11T08:59:26;5.10;41.70
45491;DHT22;31237;45.586;13.782;2023-02-11T09:01:52;5.20;41.70
45491;DHT22;31237;45.586;13.782;2023-02-11T09:04:18;5.30;41.40
45491;DHT22;31237;45.586;13.782;2023-02-11T09:06:44;5.50;41.30
45491;DHT22;31237;45.586;13.782;2023-02-11T09:09:12;5.60;41.00
45491;DHT22;31237;45.586;13.782;2023-02-11T09:11:42;5.70;41.10
45491;DHT22;31237;45.586;13.782;2023-02-11T09:14:16;5.80;41.00
45491;DHT22;31237;45.586;13.782;2023-02-11T09:16:42;5.90;41.20
45491;DHT22;31237;45.586;13.782;2023-02-11T09:19:08;5.90;41.00
45491;DHT22;31237;45.586;13.782;2023-02-11T09:21:34;6.00;41.00
45491;DHT22;31237;45.586;13.782;2023-02-11T09:24:00;6.00;41.30
45491;DHT22;31237;45.586;13.782;2023-02-11T09:26:31;6.10;40.80
45491;DHT22;31237;45.586;13.782;2023-02-11T09:28:58;6.10;40.80
45491;DHT22;31237;45.586;13.782;2023-02-11T09:31:26;6.20;40.40
45491;DHT22;31237;45.586;13.782;2023-02-11T09:33:54;6.30;40.20
45491;DHT22;31237;45.586;13.782;2023-02-11T09:36:23;6.40;40.80
45491;DHT22;31237;45.586;13.782;2023-02-11T09:38:49;6.50;40.30
45491;DHT22;31237;45.586;13.782;2023-02-11T09:41:38;6.50;40.50
45491;DHT22;31237;45.586;13.782;2023-02-11T09:44:07;6.60;40.70
45491;DHT22;31237;45.586;13.782;2023-02-11T09:46:39;6.70;40.80
45491;DHT22;31237;45.586;13.782;2023-02-11T09:49:06;6.80;41.00
45491;DHT22;31237;45.586;13.782;2023-02-11T09:51:54;7.00;40.80
45491;DHT22;31237;45.586;13.782;2023-02-11T09:54:40;7.10;40.90
45491;DHT22;31237;45.586;13.782;2023-02-11T09:57:10;7.20;41.00
45491;DHT22;31237;45.586;13.782;2023-02-11T09:59:35;7.40;40.60
45491;DHT22;31237;45.586;13.782;2023-02-11T10:02:08;7.40;40.30
45491;DHT22;31237;45.586;13.782;2023-02-11T10:04:58;7.60;40.70
45491;DHT22;31237;45.586;13.782;2023-02-11T10:07:36;7.70;40.60
45491;DHT22;31237;45.586;13.782;2023-02-11T10:13:24;8.00;40.10
45491;DHT22;31237;45.586;13.782;2023-02-11T10:16:31;8.10;40.10
45491;DHT22;31237;45.586;13.782;2023-02-11T10:19:29;8.20;40.90
45491;DHT22;31237;45.586;13.782;2023-02-11T10:24:15;8.40;41.70
45491;DHT22;31237;45.586;13.782;2023-02-11T10:26:42;8.40;41.70
45491;DHT22;31237;45.586;13.782;2023-02-11T10:29:40;8.40;42.10
45491;DHT22;31237;45.586;13.782;2023-02-11T10:35:20;8.20;42.50
45491;DHT22;31237;45.586;13.782;2023-02-11T10:37:46;8.10;42.50
45491;DHT22;31237;45.586;13.782;2023-02-11T10:40:22;8.10;42.60
45491;DHT22;31237;45.586;13.782;2023-02-11T10:42:53;8.00;42.70
45491;DHT22;31237;45.586;13.782;2023-02-11T10:45:31;8.00;42.80
45491;DHT22;31237;45.586;13.782;2023-02-11T10:47:57;7.90;42.80
45491;DHT22;31237;45.586;13.782;2023-02-11T10:50:30;7.90;43.00
45491;DHT22;31237;45.586;13.782;2023-02-11T10:53:19;8.00;43.20
45491;DHT22;31237;45.586;13.782;2023-02-11T10:55:55;8.00;43.20
45491;DHT22;31237;45.586;13.782;2023-02-11T10:58:45;8.00;43.50
45491;DHT22;31237;45.586;13.782;2023-02-11T11:01:18;8.10;43.60
45491;DHT22;31237;45.586;13.782;2023-02-11T11:03:50;8.10;44.30
45491;DHT22;31237;45.586;13.782;2023-02-11T11:06:31;8.10;44.60
45491;DHT22;31237;45.586;13.782;2023-02-11T11:08:58;8.10;44.70
45491;DHT22;31237;45.586;13.782;2023-02-11T11:11:25;8.10;44.60
45491;DHT22;31237;45.586;13.782;2023-02-11T11:14:01;8.00;44.30
45491;DHT22;31237;45.586;13.782;2023-02-11T11:16:30;8.10;44.40
45491;DHT22;31237;45.586;13.782;2023-02-11T11:21:45;8.10;44.80
45491;DHT22;31237;45.586;13.782;2023-02-11T11:24:22;8.10;45.20
45491;DHT22;31237;45.586;13.782;2023-02-11T11:26:52;8.10;45.30
45491;DHT22;31237;45.586;13.782;2023-02-11T11:29:38;8.10;45.10
45491;DHT22;31237;45.586;13.782;2023-02-11T11:32:27;8.10;44.90
45491;DHT22;31237;45.586;13.782;2023-02-11T11:34:55;8.10;45.00
45491;DHT22;31237;45.586;13.782;2023-02-11T11:37:27;8.10;46.40
45491;DHT22;31237;45.586;13.782;2023-02-11T11:40:02;8.10;47.60
45491;DHT22;31237;45.586;13.782;2023-02-11T11:42:34;8.00;47.90
45491;DHT22;31237;45.586;13.782;2023-02-11T11:45:23;8.00;48.50
45491;DHT22;31237;45.586;13.782;2023-02-11T11:50:36;8.00;48.80
45491;DHT22;31237;45.586;13.782;2023-02-11T11:53:09;8.00;49.10
45491;DHT22;31237;45.586;13.782;2023-02-11T11:56:01;8.00;49.60
45491;DHT22;31237;45.586;13.782;2023-02-11T11:58:29;8.00;49.60
45491;DHT22;31237;45.586;13.782;2023-02-11T12:01:01;8.00;49.70
45491;DHT22;31237;45.586;13.782;2023-02-11T12:03:50;8.00;49.90
45491;DHT22;31237;45.586;13.782;2023-02-11T12:12:17;7.90;51.10
45491;DHT22;31237;45.586;13.782;2023-02-11T12:18:06;7.90;53.30
45491;DHT22;31237;45.586;13.782;2023-02-11T12:28:57;7.80;53.90
45491;DHT22;31237;45.586;13.782;2023-02-11T12:39:55;7.70;55.60
45491;DHT22;31237;45.586;13.782;2023-02-11T12:59:28;7.50;56.30
45491;DHT22;31237;45.586;13.782;2023-02-11T13:01:57;7.50;56.30
45491;DHT22;31237;45.586;13.782;2023-02-11T13:04:37;7.50;56.50
45491;DHT22;31237;45.586;13.782;2023-02-11T13:07:12;7.50;56.30
45491;DHT22;31237;45.586;13.782;2023-02-11T13:09:48;7.60;56.60
45491;DHT22;31237;45.586;13.782;2023-02-11T13:12:16;7.50;56.70
45491;DHT22;31237;45.586;13.782;2023-02-11T13:15:12;7.60;56.90
45491;DHT22;31237;45.586;13.782;2023-02-11T13:18:03;7.50;56.70
45491;DHT22;31237;45.586;13.782;2023-02-11T13:20:54;7.50;56.70
45491;DHT22;31237;45.586;13.782;2023-02-11T13:23:24;7.40;56.80
45491;DHT22;31237;45.586;13.782;2023-02-11T13:26:15;7.50;56.60
45491;DHT22;31237;45.586;13.782;2023-02-11T13:31:13;7.40;57.40
45491;DHT22;31237;45.586;13.782;2023-02-11T13:33:41;7.50;57.70
45491;DHT22;31237;45.586;13.782;2023-02-11T13:36:24;7.40;57.50
45491;DHT22;31237;45.586;13.782;2023-02-11T13:38:59;7.40;57.90
45491;DHT22;31237;45.586;13.782;2023-02-11T13:41:29;7.30;57.20
45491;DHT22;31237;45.586;13.782;2023-02-11T13:46:51;7.30;56.80
45491;DHT22;31237;45.586;13.782;2023-02-11T13:49:37;7.20;56.70
45491;DHT22;31237;45.586;13.782;2023-02-11T13:54:57;7.20;56.50
45491;DHT22;31237;45.586;13.782;2023-02-11T13:57:30;7.20;56.50
45491;DHT22;31237;45.586;13.782;2023-02-11T14:00:03;7.20;56.40
45491;DHT22;31237;45.586;13.782;2023-02-11T14:02:34;7.20;56.60
45491;DHT22;31237;45.586;13.782;2023-02-11T14:05:29;7.20;56.50
45491;DHT22;31237;45.586;13.782;2023-02-11T14:08:21;7.20;56.40
45491;DHT22;31237;45.586;13.782;2023-02-11T14:16:26;7.00;56.00
45491;DHT22;31237;45.586;13.782;2023-02-11T14:26:45;6.90;55.00
45491;DHT22;31237;45.586;13.782;2023-02-11T14:29:14;6.80;55.00
45491;DHT22;31237;45.586;13.782;2023-02-11T14:31:42;6.80;54.80
45491;DHT22;31237;45.586;13.782;2023-02-11T14:39:41;6.80;54.60
45491;DHT22;31237;45.586;13.782;2023-02-11T14:42:17;6.80;54.60
45491;DHT22;31237;45.586;13.782;2023-02-11T14:44:45;6.80;54.40
45491;DHT22;31237;45.586;13.782;2023-02-11T14:47:21;6.80;54.50
45491;DHT22;31237;45.586;13.782;2023-02-11T14:49:48;6.80;54.60
45491;DHT22;31237;45.586;13.782;2023-02-11T14:52:25;6.80;54.70
45491;DHT22;31237;45.586;13.782;2023-02-11T14:55:03;6.80;54.90
45491;DHT22;31237;45.586;13.782;2023-02-11T14:57:29;6.80;55.20
45491;DHT22;31237;45.586;13.782;2023-02-11T15:00:01;6.80;55.30
45491;DHT22;31237;45.586;13.782;2023-02-11T15:02:36;6.70;55.50
45491;DHT22;31237;45.586;13.782;2023-02-11T15:05:21;6.80;55.70
45491;DHT22;31237;45.586;13.782;2023-02-11T15:07:49;6.80;55.80
45491;DHT22;31237;45.586;13.782;2023-02-11T15:12:51;6.80;55.70
45491;DHT22;31237;45.586;13.782;2023-02-11T15:15:18;6.80;55.80
45491;DHT22;31237;45.586;13.782;2023-02-11T15:17:44;6.80;55.90
45491;DHT22;31237;45.586;13.782;2023-02-11T15:20:24;6.80;55.60
45491;DHT22;31237;45.586;13.782;2023-02-11T15:22:56;6.80;55.40
45491;DHT22;31237;45.586;13.782;2023-02-11T15:25:23;6.70;55.10
45491;DHT22;31237;45.586;13.782;2023-02-11T15:27:52;6.70;55.00
45491;DHT22;31237;45.586;13.782;2023-02-11T15:32:54;6.60;55.30
45491;DHT22;31237;45.586;13.782;2023-02-11T15:35:27;6.50;55.30
45491;DHT22;31237;45.586;13.782;2023-02-11T15:37:55;6.40;55.30
45491;DHT22;31237;45.586;13.782;2023-02-11T15:40:27;6.30;55.40
45491;DHT22;31237;45.586;13.782;2023-02-11T15:45:25;6.30;55.70
45491;DHT22;31237;45.586;13.782;2023-02-11T15:48:50;6.20;55.90
45491;DHT22;31237;45.586;13.782;2023-02-11T15:53:57;6.10;56.30
45491;DHT22;31237;45.586;13.782;2023-02-11T15:58:58;6.00;56.40
45491;DHT22;31237;45.586;13.782;2023-02-11T16:01:43;5.90;56.50
45491;DHT22;31237;45.586;13.782;2023-02-11T16:04:36;5.80;56.70
45491;DHT22;31237;45.586;13.782;2023-02-11T16:07:02;5.70;56.60
45491;DHT22;31237;45.586;13.782;2023-02-11T16:09:33;5.70;57.00
45491;DHT22;31237;45.586;13.782;2023-02-11T16:12:03;5.60;57.10
45491;DHT22;31237;45.586;13.782;2023-02-11T16:14:33;5.50;57.00
45491;DHT22;31237;45.586;13.782;2023-02-11T16:17:12;5.50;57.20
45491;DHT22;31237;45.586;13.782;2023-02-11T16:19:49;5.40;57.40
45491;DHT22;31237;45.586;13.782;2023-02-11T16:22:23;5.30;57.50
45491;DHT22;31237;45.586;13.782;2023-02-11T16:24:52;5.30;57.60
45491;DHT22;31237;45.586;13.782;2023-02-11T16:27:26;5.20;57.60
45491;DHT22;31237;45.586;13.782;2023-02-11T16:29:56;5.20;57.50
45491;DHT22;31237;45.586;13.782;2023-02-11T16:32:27;5.10;57.70
45491;DHT22;31237;45.586;13.782;2023-02-11T16:34:55;5.10;57.70
45491;DHT22;31237;45.586;13.782;2023-02-11T16:37:25;5.10;58.00
45491;DHT22;31237;45.586;13.782;2023-02-11T16:39:55;5.10;58.20
45491;DHT22;31237;45.586;13.782;2023-02-11T16:42:22;5.10;58.00
45491;DHT22;31237;45.586;13.782;2023-02-11T16:44:48;5.10;58.00
45491;DHT22;31237;45.586;13.782;2023-02-11T16:47:23;5.10;57.90
45491;DHT22;31237;45.586;13.782;2023-02-11T16:49:49;5.10;57.70
45491;DHT22;31237;45.586;13.782;2023-02-11T16:52:17;5.10;57.50
45491;DHT22;31237;45.586;13.782;2023-02-11T16:54:43;5.10;57.40
45491;DHT22;31237;45.586;13.782;2023-02-11T16:57:17;5.20;57.40
45491;DHT22;31237;45.586;13.782;2023-02-11T16:59:44;5.20;57.20
45491;DHT22;31237;45.586;13.782;2023-02-11T17:02:31;5.20;57.10
45491;DHT22;31237;45.586;13.782;2023-02-11T17:05:02;5.20;57.10
45491;DHT22;31237;45.586;13.782;2023-02-11T17:07:28;5.10;57.20
45491;DHT22;31237;45.586;13.782;2023-02-11T17:09:55;5.10;57.30
45491;DHT22;31237;45.586;13.782;2023-02-11T17:12:21;5.10;57.40
45491;DHT22;31237;45.586;13.782;2023-02-11T17:14:50;5.10;57.60
45491;DHT22;31237;45.586;13.782;2023-02-11T17:17:16;5.00;57.80
45491;DHT22;31237;45.586;13.782;2023-02-11T17:19:42;5.00;57.80
45491;DHT22;31237;45.586;13.782;2023-02-11T17:22:09;4.90;57.90
45491;DHT22;31237;45.586;13.782;2023-02-11T17:24:35;4.90;57.90
45491;DHT22;31237;45.586;13.782;2023-02-11T17:27:01;4.90;58.10
45491;DHT22;31237;45.586;13.782;2023-02-11T17:29:27;4.80;58.30
45491;DHT22;31237;45.586;13.782;2023-02-11T17:31:53;4.80;58.60
45491;DHT22;31237;45.586;13.782;2023-02-11T17:34:20;4.70;58.40
45491;DHT22;31237;45.586;13.782;2023-02-11T17:36:46;4.70;58.90
45491;DHT22;31237;45.586;13.782;2023-02-11T17:39:12;4.70;58.50
45491;DHT22;31237;45.586;13.782;2023-02-11T17:41:39;4.60;58.70
45491;DHT22;31237;45.586;13.782;2023-02-11T17:44:05;4.60;59.20
45491;DHT22;31237;45.586;13.782;2023-02-11T17:46:32;4.60;59.00
45491;DHT22;31237;45.586;13.782;2023-02-11T17:48:58;4.60;59.10
45491;DHT22;31237;45.586;13.782;2023-02-11T17:53:52;4.60;59.60
45491;DHT22;31237;45.586;13.782;2023-02-11T17:56:19;4.50;59.80
45491;DHT22;31237;45.586;13.782;2023-02-11T17:58:45;4.50;59.70
45491;DHT22;31237;45.586;13.782;2023-02-11T18:01:10;4.50;60.50